Предлагаем Вашему вниманию английскую версию страницы: AUTOTAF.ME 15601 - aviation weather forecast Kustendil

AUTOTAF 15601 - авиапрогноз Kustendil

Сегодня рассвет 04:27 UTC, восход солнца 04:55 UTC,
местный полдень 10:12 UTC, заход солнца 15:29 UTC,
наступление темноты 15:58 UTC.

Краткий прогноз 15601 на 9 часов

AUTOTAF.ME 15601 260800Z 2609/2618 VRB02MPS CAVOK

Детальный прогноз 15601 на 24 часа

AUTOTAF.ME 15601 260800Z 2609/2709 VRB02MPS 9999 SKC TX16/2612Z TN07/2700Z

Подробный табличный прогноз

Время (UTC) miniAUTOTAF на 3 ч WX FZLVL
M AGL
ICE TURB Т
(°С)
Тd
(°С)
f(%) QNH
(гПа)
WIND/T
06 VRB02MPS 9999 VCSH BKN016CB VCSH 1950 8 6 92 1013 ...
09 VRB02MPS 9999 SKC 2100 13 7 66 1012 ...
12 VRB02MPS 9999 SKC 2550 MOD FL50/FL60 16 5 50 1011 ...
15 VRB02MPS 9999 SKC 2850 MOD FL70/FL80 13 6 62 1011 ...
18 VRB02MPS 9999 SKC 3000 10 4 67 1012 ...
21 VRB02MPS 9999 SKC 3300 8 3 69 1012 ...
27.10.2020
00 VRB02MPS 9999 SKC 3300 7 2 70 1012 ...
03 VRB02MPS 9999 SKC 3300 7 2 73 1012 ...
06 VRB02MPS 9999 SKC 3000 8 3 70 1013 ...
09 VRB02MPS 9999 SKC 3000 14 4 50 1012 ...
12 VRB02MPS 9999 SKC 2850 MOD FL50/FL60 17 4 41 1010 ...
15 VRB02MPS 9999 SKC 2700 14 4 54 1010 ...
18 VRB02MPS 9999 BKN226 2550 MOD FL70/FL80 11 5 66 1011 ...
21 VRB02MPS 9999 BKN200 2400 9 5 78 1012 ...
28.10.2020
00 VRB02MPS 9999 BKN210 2250 8 5 84 1012 ...
03 VRB02MPS 5000 BR SKC BR 2100 7 5 86 1013 ...


Широта 42.3°, долгота 22.8°, высота 527 м абс.
Средняя высота рельефа местности 800 м абс.
Прогнозы обновляются четыре раза в сутки: в 02, 08, 14, 20 ч всемирного времени.


Выбрать прогноз по другой модели Kustendil
Онлайн-сводка гроз по Kustendil (для РФ и ближнего зарубежья)
Карта фактических гроз в окрестностях Kustendil
Динамические прогностические карты (ventusky.com)
Прогностическая карта высоты нижней границы облаков по Kustendil (windy.com)
Выбрать другой город

Прогноз предназначен для личного научно-познавательного использования частными лицами
и не предназначен для принятия важных решений и выполнения реальных полётов воздушных судов

При копировании или ином использовании любых материалов данного сайта ссылка на © meteocenter.asia обязательна.

0.97/1.4